Welcome to Northern Hawkes Bay. New Zealand.
PWS Header
      nz Flag



Hit Counter


W3C Valid W3C Valid logo


    Wairoa

Select any of the Stations below to visit their websites.










Historic Data from Weather Underground
Select the location of interest below. Wairoa is the default. Please have patience, this Data is slow to load in.
Northern Hawkes Bay Historical Data
Daily Summary for May 2, 2017 Units:  English    Metric   Both
« Previous Day
Next Day »
Daily Weekly Monthly Yearly Custom
  High: Low: Average:
Temperature: 66.9 °F 44.8 °F 53.6 °F
Dew Point: 48 °F 42.4 °F 45.5 °F
Humidity: 97% 45% 76%
Wind Speed: 18.3mph 0mph 3.9mph
Wind Gust: 25.9mph - -
Wind- - West
Pressure: 30.2 in 30.1 in -
Precipitation: 0 in    
Historical Graphs
 
 
Tabular Data for May 2, 2017
Time Temperature Dew Point Pressure Wind Wind Speed Wind Gust Humidity Rainfall Rate (Hourly) solar
00:02 51.4 °F 46.8 °F 30.1 in SW 13.6 mph 23.5 mph 84% 0 in 0 W/m2
00:07 51.3 °F 46.6 °F 30.1 in SW 10.7 mph 23.5 mph 84% 0 in 0 W/m2
00:12 51.3 °F 46.6 °F 30.1 in WSW 13.6 mph 24.4 mph 84% 0 in 0 W/m2
00:17 51.3 °F 46.2 °F 30.1 in West 9.2 mph 24.4 mph 83% 0 in 0 W/m2
00:22 51.1 °F 46 °F 30.1 in WSW 10.7 mph 19.7 mph 83% 0 in 0 W/m2
00:27 51.3 °F 46.2 °F 30.1 in SW 10.7 mph 23.5 mph 83% 0 in 0 W/m2
00:32 51.3 °F 46.2 °F 30.1 in SW 9.2 mph 23.5 mph 83% 0 in 0 W/m2
00:37 51.1 °F 46.4 °F 30.1 in SW 13.6 mph 19 mph 84% 0 in 0 W/m2
00:42 51.3 °F 46.2 °F 30.1 in SW 12.1 mph 19.7 mph 83% 0 in 0 W/m2
00:47 51.3 °F 46.2 °F 30.1 in WSW 12.1 mph 21.3 mph 83% 0 in 0 W/m2
00:52 51.3 °F 46.2 °F 30.1 in WSW 13 mph 22.1 mph 83% 0 in 0 W/m2
00:57 51.4 °F 46 °F 30.1 in WSW 12.1 mph 24.4 mph 82% 0 in 0 W/m2
01:02 51.6 °F 46.2 °F 30.1 in WSW 8.3 mph 24.4 mph 82% 0 in 0 W/m2
01:07 51.8 °F 46.2 °F 30.1 in SW 11.4 mph 22.1 mph 81% 0 in 0 W/m2
01:12 51.6 °F 46.6 °F 30.1 in SW 8.3 mph 22.1 mph 83% 0 in 0 W/m2
01:17 51.6 °F 46.6 °F 30.1 in SW 11.4 mph 22.1 mph 83% 0 in 0 W/m2
01:22 51.8 °F 46.6 °F 30.1 in SW 12.1 mph 22.1 mph 82% 0 in 0 W/m2
01:27 51.8 °F 46.2 °F 30.1 in WSW 14.5 mph 22.1 mph 81% 0 in 0 W/m2
01:32 51.8 °F 46.2 °F 30.1 in SW 13 mph 22.1 mph 81% 0 in 0 W/m2
01:37 51.6 °F 46.6 °F 30.1 in SW 10.7 mph 21.3 mph 83% 0 in 0 W/m2
01:42 51.8 °F 46.6 °F 30.1 in SW 13 mph 22.8 mph 82% 0 in 0 W/m2
01:47 51.8 °F 46.6 °F 30.1 in SW 14.5 mph 23.5 mph 82% 0 in 0 W/m2
01:52 51.6 °F 46.2 °F 30.1 in WSW 18.3 mph 23.5 mph 82% 0 in 0 W/m2
01:57 51.6 °F 46.2 °F 30.1 in WSW 13.6 mph 25.9 mph 82% 0 in 0 W/m2
02:02 51.6 °F 46 °F 30.1 in WSW 12.1 mph 25.9 mph 81% 0 in 0 W/m2
02:07 51.8 °F 46.2 °F 30.1 in WSW 14.5 mph 22.1 mph 81% 0 in 0 W/m2
02:12 51.8 °F 46.2 °F 30.1 in SW 13 mph 22.8 mph 81% 0 in 0 W/m2
02:17 51.8 °F 46.2 °F 30.1 in SW 10.7 mph 22.8 mph 81% 0 in 0 W/m2
02:22 51.8 °F 46.6 °F 30.1 in WSW 10.7 mph 21.3 mph 82% 0 in 0 W/m2
02:27 51.8 °F 46.6 °F 30.1 in SW 7.6 mph 21.3 mph 82% 0 in 0 W/m2
02:32 51.8 °F 46.6 °F 30.1 in SW 9.2 mph 19.7 mph 82% 0 in 0 W/m2
02:37 51.8 °F 46.6 °F 30.1 in WSW 15.9 mph 20.6 mph 82% 0 in 0 W/m2
02:42 51.8 °F 45.9 °F 30.1 in SW 13.6 mph 24.4 mph 80% 0 in 0 W/m2
02:47 51.6 °F 46 °F 30.1 in SW 9.8 mph 24.4 mph 81% 0 in 0 W/m2
02:52 51.6 °F 45.7 °F 30.1 in WSW 11.4 mph 20.6 mph 80% 0 in 0 W/m2
02:57 51.6 °F 46 °F 30.1 in WSW 14.5 mph 22.8 mph 81% 0 in 0 W/m2
03:02 51.6 °F 45.7 °F 30.1 in WSW 15.9 mph 24.4 mph 80% 0 in 0 W/m2
03:12 51.6 °F 45.7 °F 30.1 in SW 11.4 mph 24.4 mph 80% 0 in 0 W/m2
03:17 51.8 °F 45.9 °F 30.1 in SW 8.3 mph 20.6 mph 80% 0 in 0 W/m2
03:22 51.6 °F 46.6 °F 30.1 in SW 13 mph 20.6 mph 83% 0 in 0 W/m2
03:27 51.8 °F 46.6 °F 30.1 in SW 9.8 mph 20.6 mph 82% 0 in 0 W/m2
03:32 51.6 °F 46.2 °F 30.1 in SW 10.7 mph 20.6 mph 82% 0 in 0 W/m2
03:37 51.6 °F 46.6 °F 30.1 in WSW 14.5 mph 20.6 mph 83% 0 in 0 W/m2
03:42 51.6 °F 46.6 °F 30.1 in WSW 12.1 mph 19.7 mph 83% 0 in 0 W/m2
03:47 51.8 °F 46.6 °F 30.1 in SW 11.4 mph 20.6 mph 82% 0 in 0 W/m2
03:52 52 °F 46.8 °F 30.1 in SW 9.8 mph 22.1 mph 82% 0 in 0 W/m2
03:57 51.8 °F 46.6 °F 30.1 in SW 14.5 mph 22.1 mph 82% 0 in 0 W/m2
04:02 51.8 °F 46.6 °F 30.1 in WSW 9.2 mph 19 mph 82% 0 in 0 W/m2
04:07 51.8 °F 46.6 °F 30.1 in SW 15.2 mph 19.7 mph 82% 0 in 0 W/m2
04:12 52.2 °F 46.2 °F 30.1 in SW 11.4 mph 24.4 mph 80% 0 in 0 W/m2
04:17 52.2 °F 46.2 °F 30.1 in WSW 17.4 mph 24.4 mph 80% 0 in 0 W/m2
04:22 52.2 °F 45.5 °F 30.1 in SW 11.4 mph 23.5 mph 78% 0 in 0 W/m2
04:27 52.2 °F 45.5 °F 30.1 in SW 13 mph 23.5 mph 78% 0 in 0 W/m2
04:32 52 °F 45.7 °F 30.1 in SW 12.1 mph 20.6 mph 79% 0 in 0 W/m2
04:37 52 °F 46.2 °F 30.1 in SW 13 mph 20.6 mph 81% 0 in 0 W/m2
04:42 52 °F 46 °F 30.1 in WSW 13.6 mph 19.7 mph 80% 0 in 0 W/m2
04:47 52.2 °F 45.9 °F 30.1 in WSW 12.1 mph 21.3 mph 79% 0 in 0 W/m2
04:52 52.2 °F 45.9 °F 30.1 in WSW 10.7 mph 21.3 mph 79% 0 in 0 W/m2
04:57 52.2 °F 45.9 °F 30.1 in WSW 9.2 mph 18.3 mph 79% 0 in 0 W/m2
05:02 52.2 °F 45.9 °F 30.1 in SW 10.7 mph 17.4 mph 79% 0 in 0 W/m2
05:07 52.2 °F 45.9 °F 30.1 in SW 12.1 mph 18.3 mph 79% 0 in 0 W/m2
05:12 52.2 °F 45.9 °F 30.1 in SW 8.3 mph 18.3 mph 79% 0 in 0 W/m2
05:17 52.2 °F 46.2 °F 30.1 in SW 10.7 mph 18.3 mph 80% 0 in 0 W/m2
05:22 52.2 °F 46.2 °F 30.1 in SW 6 mph 16.8 mph 80% 0 in 0 W/m2
05:27 52.2 °F 45.9 °F 30.1 in SW 9.8 mph 16.8 mph 79% 0 in 0 W/m2
05:32 52.2 °F 45.5 °F 30.1 in SW 10.7 mph 15.9 mph 78% 0 in 0 W/m2
05:37 52.2 °F 45.9 °F 30.1 in WSW 9.2 mph 15.9 mph 79% 0 in 0 W/m2
05:42 52 °F 45.7 °F 30.1 in WSW 9.2 mph 18.3 mph 79% 0 in 0 W/m2
05:47 52 °F 46 °F 30.1 in WSW 8.3 mph 18.3 mph 80% 0 in 0 W/m2
05:52 52 °F 46 °F 30.1 in WSW 13 mph 16.8 mph 80% 0 in 0 W/m2
05:57 52 °F 45.7 °F 30.1 in WSW 8.3 mph 17.4 mph 79% 0 in 0 W/m2
06:02 51.8 °F 45.1 °F 30.1 in WSW 10.7 mph 17.4 mph 78% 0 in 0 W/m2
06:07 51.8 °F 44.8 °F 30.1 in WSW 13 mph 17.4 mph 77% 0 in 0 W/m2
06:12 51.6 °F 45.3 °F 30.1 in WSW 7.6 mph 17.4 mph 79% 0 in 0 W/m2
06:17 51.6 °F 45.3 °F 30.1 in WSW 9.2 mph 16.8 mph 79% 0 in 0 W/m2
06:22 51.6 °F 45.3 °F 30.1 in SW 8.3 mph 15.9 mph 79% 0 in 0 W/m2
06:27 51.6 °F 45.3 °F 30.1 in WSW 9.8 mph 17.4 mph 79% 0 in 0 W/m2
06:32 51.4 °F 45.9 °F 30.1 in WSW 9.2 mph 17.4 mph 81% 0 in 0 W/m2
06:37 51.3 °F 45.7 °F 30.1 in WSW 8.3 mph 15.9 mph 81% 0 in 0 W/m2
06:42 51.1 °F 45.5 °F 30.1 in West 5.4 mph 15.9 mph 81% 0 in 0 W/m2
06:47 51.3 °F 45 °F 30.2 in WSW 6 mph 13.6 mph 79% 0 in 0 W/m2
06:52 51.6 °F 44.8 °F 30.2 in West 9.8 mph 17.4 mph 77% 0 in 0 W/m2
06:57 51.8 °F 44.4 °F 30.2 in WSW 7.6 mph 17.4 mph 76% 0 in 0 W/m2
07:02 51.8 °F 44.4 °F 30.2 in WSW 5.4 mph 15.9 mph 76% 0 in 1 W/m2
07:07 51.6 °F 44.8 °F 30.2 in WSW 2.2 mph 15.2 mph 77% 0 in 1 W/m2
07:12 51.3 °F 44.2 °F 30.2 in WNW 1.6 mph 7.6 mph 77% 0 in 4 W/m2
07:17 51.1 °F 44.1 °F 30.2 in Calm   5.4 mph 77% 0 in 6 W/m2
07:22 50.7 °F 44.1 °F 30.2 in West 0.7 mph 5.4 mph 78% 0 in 8 W/m2
07:27 50.7 °F 44.1 °F 30.2 in Calm   5.4 mph 78% 0 in 11 W/m2
07:32 50.7 °F 44.1 °F 30.2 in Calm   5.4 mph 78% 0 in 11 W/m2
07:37 50.7 °F 44.1 °F 30.2 in Calm   6 mph 78% 0 in 14 W/m2
07:42 50.9 °F 44.2 °F 30.2 in Calm   6 mph 78% 0 in 14 W/m2
07:47 50.9 °F 44.2 °F 30.2 in West 1.6 mph 6.9 mph 78% 0 in 15 W/m2
07:52 50.9 °F 44.1 °F 30.2 in West 1.6 mph 6.9 mph 77% 0 in 18 W/m2
07:57 51.1 °F 44.1 °F 30.2 in WNW 0.7 mph 4.5 mph 77% 0 in 19 W/m2
08:02 51.3 °F 44.1 °F 30.2 in Calm   3.8 mph 76% 0 in 20 W/m2
08:07 51.3 °F 44.1 °F 30.2 in Calm   3.8 mph 76% 0 in 25 W/m2
08:12 51.4 °F 44.1 °F 30.2 in WNW 1.6 mph 3.8 mph 76% 0 in 29 W/m2
08:17 51.4 °F 44.1 °F 30.2 in Calm   3.1 mph 76% 0 in 36 W/m2
08:22 51.4 °F 44.1 °F 30.2 in NW 3.1 mph 3.8 mph 76% 0 in 30 W/m2
08:27 51.1 °F 44.1 °F 30.2 in Calm   4.5 mph 77% 0 in 25 W/m2
08:32 50.4 °F 44.1 °F 30.2 in NNW 3.1 mph 4.5 mph 79% 0 in 29 W/m2
08:37 50 °F 44.1 °F 30.2 in Calm   4.5 mph 80% 0 in 46 W/m2
08:42 50 °F 44.4 °F 30.2 in NNW 3.8 mph 6.9 mph 81% 0 in 64 W/m2
08:47 50 °F 44.8 °F 30.2 in North 0.7 mph 6.9 mph 82% 0 in 67 W/m2
08:52 50.2 °F 45.1 °F 30.2 in North 1.6 mph 6.9 mph 83% 0 in 73 W/m2
08:57 50.4 °F 45.1 °F 30.2 in North 2.2 mph 6.9 mph 82% 0 in 92 W/m2
09:02 50.7 °F 45.1 °F 30.2 in North 3.1 mph 6 mph 81% 0 in 116 W/m2
09:07 51.1 °F 45.1 °F 30.2 in Calm   6 mph 80% 0 in 168 W/m2
09:12 51.6 °F 45 °F 30.2 in Calm   4.5 mph 78% 0 in 330 W/m2
09:17 52.5 °F 44.8 °F 30.2 in NNW 3.1 mph 6.9 mph 75% 0 in 114 W/m2
09:22 53.6 °F 45.5 °F 30.2 in NNW 3.1 mph 6.9 mph 74% 0 in 157 W/m2
09:27 53.4 °F 45 °F 30.2 in NW 3.1 mph 6.9 mph 73% 0 in 163 W/m2
09:32 53.4 °F 44.6 °F 30.2 in NW 3.1 mph 6.9 mph 72% 0 in 164 W/m2
09:37 53.8 °F 44.6 °F 30.2 in Calm   6.9 mph 71% 0 in 141 W/m2
09:42 54.7 °F 45.1 °F 30.2 in NNW 1.6 mph 6 mph 70% 0 in 106 W/m2
09:47 56.3 °F 45.5 °F 30.2 in NNW 3.1 mph 5.4 mph 67% 0 in 144 W/m2
09:52 56.8 °F 45.1 °F 30.2 in NNW 2.2 mph 6.9 mph 65% 0 in 191 W/m2
09:57 56.1 °F 43.7 °F 30.2 in North 2.2 mph 8.3 mph 63% 0 in 238 W/m2
10:02 56.5 °F 44.4 °F 30.2 in North 2.2 mph 8.3 mph 64% 0 in 240 W/m2
10:07 56.5 °F 44.1 °F 30.2 in NNW 1.6 mph 6.9 mph 63% 0 in 249 W/m2
10:12 56.8 °F 45.1 °F 30.2 in NW 0.7 mph 6 mph 65% 0 in 239 W/m2
10:17 58.5 °F 45.9 °F 30.2 in NNW 2.2 mph 6.9 mph 63% 0 in 212 W/m2
10:22 59.4 °F 45.5 °F 30.2 in Calm   6.9 mph 60% 0 in 276 W/m2
10:27 59.5 °F 44.8 °F 30.2 in Calm   5.4 mph 58% 0 in 210 W/m2
10:32 58.5 °F 44.2 °F 30.2 in Calm   5.4 mph 59% 0 in 264 W/m2
10:37 58.5 °F 44.6 °F 30.2 in Calm   5.4 mph 60% 0 in 273 W/m2
10:42 58.5 °F 44.2 °F 30.2 in Calm   3.8 mph 59% 0 in 283 W/m2
10:47 58.8 °F 45.3 °F 30.2 in WSW 3.8 mph 6.9 mph 61% 0 in 216 W/m2
10:52 57.9 °F 43.2 °F 30.2 in WSW 0.7 mph 7.6 mph 58% 0 in 195 W/m2
10:57 57.7 °F 44.1 °F 30.2 in Calm   7.6 mph 60% 0 in 221 W/m2
11:02 58.1 °F 44.8 °F 30.2 in Calm   3.8 mph 61% 0 in 398 W/m2
11:07 58.8 °F 44.4 °F 30.2 in West 3.8 mph 6 mph 59% 0 in 323 W/m2
11:12 58.5 °F 43.3 °F 30.2 in SW 2.2 mph 6 mph 57% 0 in 268 W/m2
11:17 57.9 °F 43.2 °F 30.2 in Calm   6 mph 58% 0 in 232 W/m2
11:22 57.4 °F 43.2 °F 30.2 in Calm   5.4 mph 59% 0 in 230 W/m2
11:27 57.2 °F 42.6 °F 30.2 in SW 3.8 mph 6.9 mph 58% 0 in 290 W/m2
11:32 57.4 °F 42.6 °F 30.2 in Calm   6.9 mph 58% 0 in 301 W/m2
11:37 58.5 °F 43.7 °F 30.2 in Calm   6.9 mph 58% 0 in 264 W/m2
11:42 58.6 °F 43.5 °F 30.2 in Calm   3.8 mph 57% 0 in 317 W/m2
11:47 59.2 °F 43 °F 30.2 in SW 2.2 mph 6 mph 55% 0 in 303 W/m2
11:52 59 °F 43 °F 30.2 in SW 3.8 mph 7.6 mph 55% 0 in 296 W/m2
11:57 59 °F 43 °F 30.2 in SW 3.8 mph 7.6 mph 55% 0 in 348 W/m2
12:02 59.5 °F 43.9 °F 30.2 in SW 0.7 mph 6 mph 56% 0 in 357 W/m2
12:07 59 °F 42.4 °F 30.2 in SW 0.7 mph 7.6 mph 54% 0 in 285 W/m2
12:12 59 °F 43 °F 30.2 in SW 3.1 mph 8.3 mph 55% 0 in 414 W/m2
12:17 59 °F 43 °F 30.2 in SW 6 mph 8.3 mph 55% 0 in 330 W/m2
12:22 59.7 °F 43.5 °F 30.2 in SW 4.5 mph 9.8 mph 55% 0 in 313 W/m2
12:27 59.2 °F 42.6 °F 30.2 in Calm   9.8 mph 54% 0 in 355 W/m2
12:32 59.2 °F 42.6 °F 30.2 in Calm   6.9 mph 54% 0 in 272 W/m2
12:37 59.2 °F 43.5 °F 30.2 in SW 0.7 mph 6 mph 56% 0 in 345 W/m2
12:42 59.7 °F 43.5 °F 30.2 in SW 0.7 mph 6.9 mph 55% 0 in 311 W/m2
12:47 59.7 °F 43.2 °F 30.2 in SW 0.7 mph 6.9 mph 54% 0 in 299 W/m2
12:52 59.9 °F 42.6 °F 30.2 in SW 3.8 mph 7.6 mph 53% 0 in 339 W/m2
12:57 59.5 °F 43 °F 30.2 in SW 0.7 mph 7.6 mph 54% 0 in 331 W/m2
13:02 60.1 °F 43.3 °F 30.2 in SSW 3.1 mph 7.6 mph 54% 0 in 310 W/m2
13:07 59.7 °F 42.6 °F 30.2 in Calm   6 mph 53% 0 in 293 W/m2
13:12 60.1 °F 43.3 °F 30.2 in Calm   6 mph 54% 0 in 463 W/m2
13:17 61.7 °F 44.4 °F 30.2 in Calm   0.7 mph 53% 0 in 370 W/m2
13:22 61.9 °F 44.1 °F 30.2 in South 0.7 mph 3.8 mph 52% 0 in 318 W/m2
13:27 61.7 °F 43.3 °F 30.2 in Calm   3.8 mph 51% 0 in 275 W/m2
13:32 61.5 °F 43.2 °F 30.2 in Calm   2.2 mph 51% 0 in 309 W/m2
13:37 62.4 °F 43 °F 30.2 in Calm   0.7 mph 49% 0 in 284 W/m2
13:42 63.1 °F 43.2 °F 30.2 in Calm     48% 0 in 256 W/m2
13:47 64.8 °F 44.1 °F 30.2 in Calm     47% 0 in 199 W/m2
13:52 64 °F 43 °F 30.2 in Calm     46% 0 in 149 W/m2
13:57 64.4 °F 43.2 °F 30.2 in Calm     46% 0 in 93 W/m2
14:02 65.7 °F 44.2 °F 30.2 in Calm     46% 0 in 68 W/m2
14:07 66.2 °F 44.2 °F 30.2 in Calm     45% 0 in 65 W/m2
14:12 65.3 °F 44.1 °F 30.2 in Calm     46% 0 in 64 W/m2
14:17 65.1 °F 44.4 °F 30.2 in Calm     47% 0 in 64 W/m2
14:22 65.3 °F 44.6 °F 30.2 in Calm     47% 0 in 66 W/m2
14:27 66.2 °F 44.2 °F 30.2 in Calm     45% 0 in 66 W/m2
14:32 66.9 °F 45 °F 30.2 in Calm     45% 0 in 67 W/m2
14:37 65.8 °F 44.4 °F 30.2 in Calm     46% 0 in 67 W/m2
14:42 65.5 °F 44.2 °F 30.2 in Calm     46% 0 in 67 W/m2
14:47 65.3 °F 45.1 °F 30.2 in Calm     48% 0 in 66 W/m2
14:52 65.5 °F 44.8 °F 30.2 in Calm     47% 0 in 65 W/m2
15:12 63.9 °F 45 °F 30.2 in Calm   0.7 mph 50% 0 in 134 W/m2
15:17 63.3 °F 45 °F 30.2 in Calm     51% 0 in 177 W/m2
15:22 62.4 °F 45.1 °F 30.2 in Calm   1.6 mph 53% 0 in 171 W/m2
15:27 63.9 °F 45.9 °F 30.2 in Calm   1.6 mph 52% 0 in 162 W/m2
15:32 63.9 °F 45.9 °F 30.2 in Calm     52% 0 in 153 W/m2
15:37 63.3 °F 45.9 °F 30.2 in Calm     53% 0 in 143 W/m2
15:42 63.7 °F 46.2 °F 30.2 in Calm     53% 0 in 131 W/m2
15:47 62.8 °F 45.9 °F 30.2 in Calm     54% 0 in 119 W/m2
15:52 62.8 °F 46.4 °F 30.2 in Calm     55% 0 in 106 W/m2
15:57 62.2 °F 45.9 °F 30.2 in Calm     55% 0 in 92 W/m2
16:02 62.6 °F 46.2 °F 30.2 in Calm     55% 0 in 79 W/m2
16:07 63.1 °F 46.2 °F 30.2 in Calm     54% 0 in 62 W/m2
16:12 62.6 °F 45.7 °F 30.2 in Calm   0.7 mph 54% 0 in 55 W/m2
16:17 62.6 °F 46.2 °F 30.2 in Calm   0.7 mph 55% 0 in 56 W/m2
16:22 63.1 °F 46.8 °F 30.2 in Calm     55% 0 in 57 W/m2
16:27 63.1 °F 46.8 °F 30.2 in Calm     55% 0 in 54 W/m2
16:32 63.5 °F 47.1 °F 30.2 in Calm     55% 0 in 53 W/m2
16:37 63.1 °F 46.8 °F 30.2 in Calm     55% 0 in 51 W/m2
16:42 62.6 °F 46.8 °F 30.2 in Calm     56% 0 in 48 W/m2
16:47 62.2 °F 47.3 °F 30.2 in Calm     58% 0 in 42 W/m2
16:52 61.7 °F 47.1 °F 30.2 in Calm     59% 0 in 34 W/m2
16:57 61.3 °F 47.3 °F 30.2 in Calm     60% 0 in 26 W/m2
17:02 61.2 °F 48 °F 30.2 in Calm     62% 0 in 20 W/m2
17:07 60.4 °F 47.8 °F 30.2 in Calm     63% 0 in 12 W/m2
17:12 59.2 °F 46.9 °F 30.2 in Calm     64% 0 in 8 W/m2
17:17 57.6 °F 46.8 °F 30.2 in Calm     67% 0 in 5 W/m2
17:22 56.1 °F 46.9 °F 30.2 in Calm     71% 0 in 2 W/m2
17:27 55.4 °F 46.9 °F 30.2 in Calm     73% 0 in 0 W/m2
17:32 54.9 °F 46.8 °F 30.2 in Calm     74% 0 in 0 W/m2
17:37 54.3 °F 46.9 °F 30.2 in Calm     76% 0 in 0 W/m2
17:42 53.8 °F 47.1 °F 30.2 in Calm     78% 0 in 0 W/m2
17:47 53.6 °F 47.7 °F 30.2 in Calm     80% 0 in 0 W/m2
17:52 53.2 °F 47.8 °F 30.2 in Calm     82% 0 in 0 W/m2
17:57 53.1 °F 48 °F 30.2 in Calm     83% 0 in 0 W/m2
18:02 52.7 °F 47.7 °F 30.2 in Calm     83% 0 in 0 W/m2
18:07 52.3 °F 47.3 °F 30.2 in Calm     83% 0 in 0 W/m2
18:12 52.2 °F 47.1 °F 30.2 in Calm     83% 0 in 0 W/m2
18:17 51.8 °F 47.1 °F 30.2 in Calm     84% 0 in 0 W/m2
18:22 51.6 °F 47.7 °F 30.2 in Calm     86% 0 in 0 W/m2
18:27 51.3 °F 47.1 °F 30.2 in Calm     86% 0 in 0 W/m2
18:32 51.1 °F 47.5 °F 30.2 in Calm     87% 0 in 0 W/m2
18:37 50.9 °F 47.5 °F 30.2 in Calm     88% 0 in 0 W/m2
18:42 50.5 °F 47.5 °F 30.2 in Calm     89% 0 in 0 W/m2
18:47 50.5 °F 47.7 °F 30.2 in Calm     90% 0 in 0 W/m2
18:52 50.2 °F 47.5 °F 30.2 in Calm     90% 0 in 0 W/m2
18:57 50 °F 47.1 °F 30.2 in Calm     90% 0 in 0 W/m2
19:02 49.6 °F 47.5 °F 30.2 in Calm     92% 0 in 0 W/m2
19:07 49.5 °F 47.1 °F 30.2 in Calm     92% 0 in 0 W/m2
19:12 49.3 °F 47.3 °F 30.2 in Calm     93% 0 in 0 W/m2
19:17 49.1 °F 47.1 °F 30.2 in Calm     93% 0 in 0 W/m2
19:22 48.6 °F 46.9 °F 30.2 in Calm     94% 0 in 0 W/m2
19:27 48.4 °F 46.8 °F 30.2 in Calm     94% 0 in 0 W/m2
19:32 48.2 °F 46.6 °F 30.2 in Calm     94% 0 in 0 W/m2
19:37 48 °F 46.8 °F 30.2 in Calm     95% 0 in 0 W/m2
19:42 48 °F 46.8 °F 30.2 in Calm     95% 0 in 0 W/m2
19:47 47.8 °F 46.8 °F 30.2 in Calm     96% 0 in 0 W/m2
19:52 48 °F 46.9 °F 30.2 in Calm     96% 0 in 0 W/m2
19:57 48.2 °F 46.8 °F 30.2 in Calm     95% 0 in 0 W/m2
20:02 48.2 °F 47.1 °F 30.2 in Calm     96% 0 in 0 W/m2
20:07 48.4 °F 47.3 °F 30.2 in NNW 3.1 mph 5.4 mph 96% 0 in 0 W/m2
20:12 48.4 °F 47.3 °F 30.2 in NNW 3.1 mph 5.4 mph 96% 0 in 0 W/m2
20:17 48.4 °F 47.3 °F 30.2 in NW 3.1 mph 5.4 mph 96% 0 in 0 W/m2
20:22 48.4 °F 46.9 °F 30.2 in NW 2.2 mph 5.4 mph 95% 0 in 0 W/m2
20:27 48.4 °F 46.9 °F 30.2 in NW 2.2 mph 5.4 mph 95% 0 in 0 W/m2
20:32 48.4 °F 46.9 °F 30.2 in NW 2.2 mph 5.4 mph 95% 0 in 0 W/m2
20:37 48.4 °F 46.9 °F 30.2 in NW 3.1 mph 5.4 mph 95% 0 in 0 W/m2
20:42 48.2 °F 46.8 °F 30.2 in NW 2.2 mph 5.4 mph 95% 0 in 0 W/m2
20:47 48.2 °F 46.8 °F 30.2 in NW 2.2 mph 5.4 mph 95% 0 in 0 W/m2
20:52 48.2 °F 46.8 °F 30.2 in Calm   4.5 mph 95% 0 in 0 W/m2
20:57 48 °F 46.9 °F 30.2 in NW 0.7 mph 4.5 mph 96% 0 in 0 W/m2
21:02 48 °F 46.8 °F 30.2 in Calm   3.8 mph 95% 0 in 0 W/m2
21:07 47.8 °F 46.6 °F 30.2 in NNW 0.7 mph 3.8 mph 95% 0 in 0 W/m2
21:12 47.7 °F 46.2 °F 30.2 in Calm   3.8 mph 95% 0 in 0 W/m2
21:17 47.5 °F 46 °F 30.2 in Calm   2.2 mph 95% 0 in 0 W/m2
21:22 47.3 °F 45.9 °F 30.2 in Calm     95% 0 in 0 W/m2
21:27 47.1 °F 45.9 °F 30.2 in Calm     95% 0 in 0 W/m2
21:32 46.9 °F 45.9 °F 30.2 in Calm   2.2 mph 96% 0 in 0 W/m2
21:37 46.8 °F 45.7 °F 30.2 in Calm   2.2 mph 96% 0 in 0 W/m2
21:42 46.6 °F 45.5 °F 30.2 in Calm     96% 0 in 0 W/m2
21:47 46.4 °F 45.3 °F 30.2 in Calm   3.1 mph 96% 0 in 0 W/m2
21:52 46.4 °F 45.3 °F 30.2 in NNW 0.7 mph 4.5 mph 96% 0 in 0 W/m2
21:57 46.4 °F 45.3 °F 30.2 in NNW 3.8 mph 4.5 mph 96% 0 in 0 W/m2
22:02 46.6 °F 45.9 °F 30.2 in NNW 2.2 mph 5.4 mph 97% 0 in 0 W/m2
22:07 46.6 °F 45.9 °F 30.2 in NNW 2.2 mph 5.4 mph 97% 0 in 0 W/m2
22:12 46.6 °F 45.9 °F 30.2 in NNW 1.6 mph 5.4 mph 97% 0 in 0 W/m2
22:17 46.6 °F 45.9 °F 30.2 in NNW 2.2 mph 5.4 mph 97% 0 in 0 W/m2
22:22 46.2 °F 45.3 °F 30.2 in Calm   5.4 mph 97% 0 in 0 W/m2
22:28 46.2 °F 45.3 °F 30.2 in Calm   3.8 mph 97% 0 in 0 W/m2
22:33 46.2 °F 45.3 °F 30.2 in NNW 0.7 mph 4.5 mph 97% 0 in 0 W/m2
22:38 46 °F 45.1 °F 30.2 in North 0.7 mph 5.4 mph 97% 0 in 0 W/m2
22:43 46 °F 45.1 °F 30.2 in North 2.2 mph 5.4 mph 97% 0 in 0 W/m2
22:48 45.9 °F 45.1 °F 30.2 in NNW 1.6 mph 4.5 mph 97% 0 in 0 W/m2
22:53 45.9 °F 45.1 °F 30.2 in NNW 1.6 mph 3.8 mph 97% 0 in 0 W/m2
22:58 45.7 °F 45 °F 30.2 in NNW 3.1 mph 4.5 mph 97% 0 in 0 W/m2
23:03 45.7 °F 45 °F 30.2 in Calm   4.5 mph 97% 0 in 0 W/m2
23:08 45.5 °F 44.8 °F 30.2 in Calm   4.5 mph 97% 0 in 0 W/m2
23:13 45.5 °F 44.8 °F 30.2 in North 0.7 mph 3.8 mph 97% 0 in 0 W/m2
23:18 45.3 °F 44.4 °F 30.2 in Calm   3.1 mph 97% 0 in 0 W/m2
23:23 45.1 °F 44.2 °F 30.2 in Calm   3.1 mph 97% 0 in 0 W/m2
23:28 45.1 °F 44.2 °F 30.2 in Calm   3.1 mph 97% 0 in 0 W/m2
23:33 45 °F 44.2 °F 30.2 in Calm   3.1 mph 97% 0 in 0 W/m2
23:38 45 °F 44.2 °F 30.2 in NNW 1.6 mph 4.5 mph 97% 0 in 0 W/m2
23:43 45 °F 44.2 °F 30.2 in NW 2.2 mph 4.5 mph 97% 0 in 0 W/m2
23:48 45 °F 44.2 °F 30.1 in NW 2.2 mph 5.4 mph 97% 0 in 0 W/m2
23:53 44.8 °F 44.1 °F 30.2 in NNW 1.6 mph 5.4 mph 97% 0 in 0 W/m2
23:58 44.8 °F 44.1 °F 30.2 in NNW 0.7 mph 3.8 mph 97% 0 in 0 W/m2
Northern Hawkes Bay. New Zealand Historic Data
Compliments of Weather Underground - 2.25 mb